X  ZamknijMetar - Lotnicze dane pogodowe     EPKT Katowice International

Temperatura

15°C Temperatura

5°C Punkt rosy

51% Wilgotność



Wiatr

32 km/h

20 MPH

 9 m/s

17 KTS



250°
WSW
Obecne warunki

Rozproszone chmury Rozproszone chmury
Ciśnienie 1011.92 (hPa) - 29.88 (in)
Widoczność 6.2 (mi) - 10 (km)
Lotnisko
Kod lotniska EPKT

Lokalizacja Katowice International 23 (km)

Metar:
EPKT 171230Z 25017KT 9999 SCT039 BKN044 15/05 Q1012

Czas: 17-09-2019 14:30